Terminal Aerodrome Forecast
Issued by NWS Twin Cities, MN

Home | Current Version | Previous Version | Text Only | Print | Product List | Glossary Off
Versions: 1 2 3 4 5 6 7 8 9 10 11 12

000
FTUS43 KMPX 241120
TAFEAU
TAF
KEAU 241120Z 2412/2512 09005KT P6SM BKN150
     FM241500 11011KT P6SM OVC070
     FM242100 12013KT 6SM -SHRA SCT030 OVC050
     FM250300 09011KT 6SM -DZ BKN020 OVC040=

USA.gov is the U.S. government's official web portal to all federal, state and local government web resources and services.